Time;durP1;ratioP1;P1;durP2;ratioP2;P2;SDS_P1;SDS_P2;PMS_P1;PMS_P2;Temp;Humidity;BMP_temperature;BMP_pressure;BME280_temperature;BME280_humidity;BME280_pressure;Samples;Min_cycle;Max_cycle;Signal;HPM_P1;HPM_P2
2020/12/27 00:04:08;;;;;;;8.50;4.07;;;;;;;3.41;100.00;94775.13;10485655;28;20033;-76
2020/12/27 00:09:08;;;;;;;8.75;4.93;;;;;;;3.04;100.00;94776.03;10487664;28;20447;-76
2020/12/27 00:14:09;;;;;;;9.70;5.70;;;;;;;2.97;100.00;94780.59;10487661;28;20029;-75
2020/12/27 00:19:09;;;;;;;7.63;5.00;;;;;;;2.89;100.00;94780.94;10460368;28;20049;-75
2020/12/27 00:24:10;;;;;;;9.80;5.30;;;;;;;2.90;100.00;94786.03;10445693;28;20025;-75
2020/12/27 00:29:10;;;;;;;13.30;5.55;;;;;;;2.97;100.00;94777.16;10445402;28;20102;-75
2020/12/27 00:34:10;;;;;;;11.93;6.07;;;;;;;2.97;100.00;94777.94;10449117;28;20017;-75
2020/12/27 00:39:11;;;;;;;10.02;5.38;;;;;;;3.16;100.00;94777.94;10453803;28;20283;-75
2020/12/27 00:44:11;;;;;;;8.05;4.93;;;;;;;3.21;100.00;94773.56;10436053;28;20029;-75
2020/12/27 00:49:12;;;;;;;7.03;3.67;;;;;;;3.25;100.00;94769.41;10453538;28;20028;-76
2020/12/27 00:54:13;;;;;;;7.37;4.80;;;;;;;3.37;100.00;94773.94;10453129;28;20039;-76
2020/12/27 00:59:13;;;;;;;14.50;6.18;;;;;;;3.15;100.00;94779.75;10435430;28;20383;-76
2020/12/27 01:04:13;;;;;;;10.73;5.32;;;;;;;3.11;100.00;94778.59;10452785;28;20037;-76
2020/12/27 01:09:15;;;;;;;12.47;5.67;;;;;;;3.10;100.00;94779.66;10434161;28;20499;-76
2020/12/27 01:14:19;;;;;;;9.57;5.53;;;;;;;3.30;100.00;94768.72;10434624;28;20289;-75
2020/12/27 01:19:19;;;;;;;11.18;4.55;;;;;;;3.41;100.00;94762.63;10478719;28;20080;-75
2020/12/27 01:24:19;;;;;;;8.15;5.18;;;;;;;3.45;100.00;94763.00;10493446;28;20488;-75
2020/12/27 01:29:20;;;;;;;10.40;5.67;;;;;;;3.44;100.00;94765.91;10493543;28;20034;-75
2020/12/27 01:34:20;;;;;;;12.90;6.07;;;;;;;3.44;100.00;94764.03;10493198;28;20020;-75
2020/12/27 01:39:20;;;;;;;16.30;7.23;;;;;;;3.46;100.00;94751.34;10474742;28;20031;-75
2020/12/27 01:44:21;;;;;;;11.60;6.93;;;;;;;3.52;100.00;94746.97;10493066;28;20071;-75
2020/12/27 01:49:21;;;;;;;9.80;6.13;;;;;;;3.39;100.00;94721.41;10492961;28;20259;-75
2020/12/27 01:54:22;;;;;;;14.48;6.20;;;;;;;3.45;100.00;94738.25;10492268;28;20812;-75
2020/12/27 01:59:31;;;;;;;12.43;6.03;;;;;;;3.48;100.00;94733.31;10492700;28;20021;-75
2020/12/27 02:04:32;;;;;;;12.55;5.65;;;;;;;3.58;100.00;94728.25;10491769;28;20063;-75
2020/12/27 02:09:36;;;;;;;9.85;6.50;;;;;;;3.59;100.00;94716.56;10492126;28;20044;-75
2020/12/27 02:14:38;;;;;;;14.13;7.20;;;;;;;3.51;100.00;94708.94;10491593;28;20095;-75
2020/12/27 02:19:38;;;;;;;13.45;6.25;;;;;;;3.49;100.00;94712.88;10491081;28;20139;-76
2020/12/27 02:24:39;;;;;;;9.30;5.77;;;;;;;3.52;100.00;94709.78;10491579;28;20103;-76
2020/12/27 02:29:39;;;;;;;14.27;5.97;;;;;;;3.48;100.00;94712.06;10491005;28;20033;-75
2020/12/27 02:34:39;;;;;;;11.93;6.23;;;;;;;3.51;100.00;94706.28;10490769;28;20035;-76
2020/12/27 02:39:40;;;;;;;12.82;6.35;;;;;;;3.52;100.00;94699.94;10491187;28;20685;-76
2020/12/27 02:49:59;;;;;;;17.15;8.23;;;;;;;3.15;100.00;94691.31;10490186;28;20036;-76
2020/12/27 02:54:59;;;;;;;13.90;7.90;;;;;;;2.98;100.00;94689.31;10489397;28;20024;-76
2020/12/27 03:00:00;;;;;;;17.87;9.17;;;;;;;2.88;100.00;94684.56;10490040;28;20032;-76
2020/12/27 03:05:00;;;;;;;21.38;9.55;;;;;;;2.90;100.00;94684.31;10488576;28;20044;-77
2020/12/27 03:10:01;;;;;;;23.33;11.43;;;;;;;2.73;100.00;94689.47;10489668;28;20166;-77
2020/12/27 03:15:01;;;;;;;21.15;11.23;;;;;;;2.80;100.00;94692.03;10472090;28;20016;-76
2020/12/27 03:20:02;;;;;;;30.70;12.65;;;;;;;2.78;100.00;94689.59;10489138;28;20535;-77
2020/12/27 03:25:02;;;;;;;30.23;12.55;;;;;;;2.83;100.00;94689.75;10488856;28;20088;-77
2020/12/27 03:30:06;;;;;;;24.50;12.35;;;;;;;2.74;100.00;94688.44;10488998;28;20201;-77
2020/12/27 03:35:07;;;;;;;29.02;12.27;;;;;;;2.71;100.00;94681.72;10488900;28;20024;-76
2020/12/27 03:40:08;;;;;;;32.83;13.65;;;;;;;2.68;100.00;94678.72;10488828;28;20024;-76
2020/12/27 03:45:08;;;;;;;28.25;12.25;;;;;;;2.71;100.00;94687.03;10488809;28;20454;-76
2020/12/27 03:50:09;;;;;;;24.52;11.05;;;;;;;2.68;100.00;94684.84;10488725;28;20047;-77
2020/12/27 03:55:09;;;;;;;29.50;14.20;;;;;;;2.68;100.00;94671.56;10487806;28;20035;-76
2020/12/27 04:00:11;;;;;;;25.10;11.20;;;;;;;2.79;100.00;94675.31;10470168;28;20087;-76
2020/12/27 04:05:15;;;;;;;26.00;12.38;;;;;;;2.84;100.00;94670.13;10470251;28;20298;-77
2020/12/27 04:10:15;;;;;;;36.08;13.60;;;;;;;3.03;100.00;94667.41;10488230;28;20408;-76
2020/12/27 04:15:16;;;;;;;25.75;10.63;;;;;;;3.10;100.00;94670.78;10487671;28;20028;-76
2020/12/27 04:20:16;;;;;;;20.20;9.00;;;;;;;3.20;100.00;94675.53;10487206;28;20147;-76
2020/12/27 04:25:18;;;;;;;31.83;9.90;;;;;;;3.01;100.00;94664.97;10469504;28;20125;-76
2020/12/27 04:30:18;;;;;;;27.25;11.35;;;;;;;2.81;100.00;94665.25;10488035;28;20055;-77
2020/12/27 04:35:19;;;;;;;18.77;9.23;;;;;;;2.77;100.00;94673.91;10487009;28;20028;-76
2020/12/27 04:40:19;;;;;;;17.23;8.05;;;;;;;2.80;100.00;94676.91;10487164;28;20271;-77
2020/12/27 04:45:20;;;;;;;14.20;6.80;;;;;;;2.82;100.00;94674.84;10487144;28;20062;-76
2020/12/27 04:50:22;;;;;;;15.68;7.43;;;;;;;2.85;100.00;94674.41;10486807;28;20286;-76
2020/12/27 04:55:22;;;;;;;16.13;7.15;;;;;;;2.99;100.00;94676.88;10469429;28;20025;-76
2020/12/27 05:00:50;;;;;;;13.02;6.28;;;;;;;3.05;100.00;94673.28;10487354;28;20033;-76
2020/12/27 05:05:52;;;;;;;11.02;5.47;;;;;;;2.99;100.00;94672.38;10470562;28;20036;-85
2020/12/27 05:10:53;;;;;;;11.27;5.55;;;;;;;3.08;100.00;94678.16;10492402;28;20478;-85
2020/12/27 05:15:53;;;;;;;11.65;5.47;;;;;;;2.99;100.00;94682.97;10486200;28;20111;-83
2020/12/27 05:21:22;;;;;;;11.33;6.40;;;;;;;2.99;100.00;94675.00;10502608;28;20495;-78
2020/12/27 05:26:29;;;;;;;;;;;;;;;2.99;100.00;94668.91;10529117;28;20055;-78
2020/12/27 05:31:35;;;;;;;11.73;5.68;;;;;;;3.05;100.00;94679.41;10494548;28;19991;-78
2020/12/27 05:36:37;;;;;;;12.93;6.32;;;;;;;3.13;100.00;94677.47;10515558;28;20032;-78
2020/12/27 05:41:37;;;;;;;12.43;5.50;;;;;;;3.12;100.00;94675.84;10536104;28;20102;-78
2020/12/27 05:46:37;;;;;;;10.63;5.27;;;;;;;3.15;100.00;94672.75;10517825;28;20038;-78
2020/12/27 05:51:50;;;;;;;10.93;5.33;;;;;;;3.07;100.00;94680.00;10519389;28;20062;-78
2020/12/27 05:56:56;;;;;;;12.25;5.72;;;;;;;3.07;100.00;94680.00;10493636;28;20131;-78
2020/12/27 06:02:40;;;;;;;7.85;4.20;;;;;;;3.05;100.00;94665.34;10493060;28;20063;-78
2020/12/27 06:29:55;;;;;;;14.02;5.95;;;;;;;3.18;100.00;94686.38;10518784;28;20033;-79
2020/12/27 06:34:55;;;;;;;11.52;6.45;;;;;;;3.15;100.00;94693.97;10494170;28;20032;-79
2020/12/27 06:39:55;;;;;;;14.68;7.55;;;;;;;3.14;100.00;94687.03;10492876;28;20032;-80
2020/12/27 06:44:56;;;;;;;17.20;7.37;;;;;;;3.18;100.00;94681.06;10492505;28;20036;-79
2020/12/27 06:50:20;;;;;;;15.77;7.67;;;;;;;3.22;100.00;94652.19;10474188;28;20384;-79
2020/12/27 06:55:38;;;;;;;13.85;7.80;;;;;;;3.29;100.00;94668.03;10483079;28;20047;-79
2020/12/27 07:00:38;;;;;;;19.30;8.07;;;;;;;3.31;100.00;94679.22;10491252;28;20033;-79
2020/12/27 07:27:42;;;;;;;17.17;8.20;;;;;;;3.34;100.00;94658.34;10487853;28;20078;-76
2020/12/27 07:32:44;;;;;;;18.70;9.23;;;;;;;3.27;100.00;94670.13;10534517;28;20067;-75
2020/12/27 07:37:44;;;;;;;18.65;9.05;;;;;;;3.26;100.00;94658.66;10497964;28;20070;-77
2020/12/27 07:42:44;;;;;;;15.32;7.30;;;;;;;3.29;100.00;94657.41;10491494;28;20040;-81
2020/12/27 07:47:45;;;;;;;14.13;8.10;;;;;;;3.31;100.00;94639.38;10505612;28;20024;-76
2020/12/27 07:52:48;;;;;;;16.00;8.00;;;;;;;3.38;100.00;94646.22;10508476;28;20097;-77
2020/12/27 07:57:49;;;;;;;15.80;8.98;;;;;;;3.34;100.00;94650.38;10521757;28;20031;-75
2020/12/27 08:02:52;;;;;;;20.45;10.13;;;;;;;3.50;100.00;94664.00;10505075;28;20024;-75
2020/12/27 08:08:03;;;;;;;22.88;10.23;;;;;;;3.52;100.00;94660.09;10504790;28;20035;-76
2020/12/27 08:13:05;;;;;;;20.98;11.65;;;;;;;3.65;100.00;94653.72;10527295;28;20047;-75
2020/12/27 08:18:08;;;;;;;15.95;8.10;;;;;;;3.77;100.00;94640.44;10510134;28;20453;-76
2020/12/27 08:23:09;;;;;;;18.02;9.27;;;;;;;3.87;100.00;94622.03;10506807;28;20110;-76
2020/12/27 08:28:12;;;;;;;18.75;8.88;;;;;;;4.02;100.00;94616.25;10485191;28;20040;-76
2020/12/27 08:33:14;;;;;;;16.25;8.25;;;;;;;4.17;100.00;94622.91;10486047;28;20565;-76
2020/12/27 08:38:21;;;;;;;13.60;7.93;;;;;;;4.31;100.00;94602.16;10505176;28;20044;-75
2020/12/27 08:43:40;;;;;;;11.90;7.38;;;;;;;4.42;100.00;94594.16;10517502;28;20115;-75
2020/12/27 08:48:56;;;;;;;11.13;6.75;;;;;;;4.60;100.00;94598.47;10519138;28;20032;-78
2020/12/27 08:53:56;;;;;;;10.05;5.60;;;;;;;4.67;100.00;94608.16;10524558;28;20097;-75
2020/12/27 08:59:24;;;;;;;11.75;5.25;;;;;;;4.54;100.00;94594.09;10534158;28;20105;-75
2020/12/27 09:04:24;;;;;;;13.10;6.35;;;;;;;4.62;100.00;94596.34;10525293;28;20098;-75
2020/12/27 09:09:25;;;;;;;10.83;6.37;;;;;;;4.59;100.00;94598.69;10515714;28;20032;-75
2020/12/27 09:14:33;;;;;;;9.50;6.00;;;;;;;4.59;100.00;94602.16;10492940;28;20062;-75
2020/12/27 09:19:35;;;;;;;11.82;7.00;;;;;;;4.64;100.00;94593.47;10492334;28;20053;-75
2020/12/27 09:24:35;;;;;;;11.35;6.28;;;;;;;4.69;100.00;94576.75;10512398;28;20036;-76
2020/12/27 09:29:37;;;;;;;10.63;5.50;;;;;;;4.81;100.00;94566.84;10532673;28;20124;-76
2020/12/27 09:34:37;;;;;;;8.38;4.47;;;;;;;4.87;100.00;94549.09;10530853;28;20493;-77
2020/12/27 09:39:38;;;;;;;8.45;4.32;;;;;;;4.94;100.00;94545.25;10533006;28;20024;-76
2020/12/27 09:44:38;;;;;;;7.10;3.87;;;;;;;4.93;100.00;94538.31;10533410;28;20024;-76
2020/12/27 09:49:41;;;;;;;5.73;3.50;;;;;;;5.08;100.00;94515.59;10532679;28;20273;-75
2020/12/27 09:54:43;;;;;;;5.78;3.17;;;;;;;5.01;100.00;94529.13;10515002;28;20023;-75
2020/12/27 09:59:44;;;;;;;6.88;3.38;;;;;;;5.03;100.00;94536.84;10532627;28;20026;-75
2020/12/27 10:04:45;;;;;;;3.63;1.85;;;;;;;5.09;100.00;94502.06;10513887;28;20036;-75
2020/12/27 10:09:45;;;;;;;6.63;2.67;;;;;;;5.16;100.00;94507.19;10513935;28;20020;-75
2020/12/27 10:14:46;;;;;;;5.30;2.38;;;;;;;5.25;100.00;94491.63;10531372;28;20043;-75
2020/12/27 10:19:47;;;;;;;6.80;1.77;;;;;;;5.42;100.00;94488.91;10531064;28;20044;-76
2020/12/27 10:24:47;;;;;;;3.47;1.60;;;;;;;5.50;100.00;94487.66;10526745;28;20035;-75
2020/12/27 10:29:48;;;;;;;3.43;1.83;;;;;;;5.46;100.00;94492.69;10490894;28;20028;-75
2020/12/27 10:34:48;;;;;;;5.05;1.73;;;;;;;5.44;100.00;94468.13;10504140;28;20274;-75
2020/12/27 10:39:49;;;;;;;5.47;2.13;;;;;;;5.29;100.00;94458.91;10526984;28;20028;-76
2020/12/27 10:44:50;;;;;;;2.85;1.90;;;;;;;5.32;100.00;94449.63;10510846;28;20036;-73
2020/12/27 10:49:50;;;;;;;5.80;2.30;;;;;;;5.47;100.00;94446.34;10502085;28;20393;-75
2020/12/27 10:54:51;;;;;;;3.13;2.23;;;;;;;5.68;100.00;94434.06;10488624;28;20263;-75
2020/12/27 10:59:51;;;;;;;6.17;2.60;;;;;;;5.80;100.00;94415.25;10486935;28;20032;-75
2020/12/27 11:04:51;;;;;;;5.47;3.60;;;;;;;5.98;100.00;94406.91;10487615;28;20138;-75
2020/12/27 11:09:52;;;;;;;6.10;3.60;;;;;;;6.14;100.00;94391.06;10487688;28;20028;-76
2020/12/27 11:14:52;;;;;;;6.90;3.37;;;;;;;6.28;100.00;94376.25;10471036;28;20013;-76
2020/12/27 11:19:52;;;;;;;5.77;3.47;;;;;;;6.30;100.00;94366.09;10490665;28;20324;-75
2020/12/27 11:24:53;;;;;;;5.73;3.40;;;;;;;6.39;100.00;94346.94;10515176;28;20522;-75
2020/12/27 11:29:53;;;;;;;4.67;2.67;;;;;;;6.47;100.00;94323.28;10529102;28;20678;-75
2020/12/27 11:34:54;;;;;;;7.82;3.83;;;;;;;6.61;100.00;94328.94;10510388;28;20024;-75
2020/12/27 11:39:54;;;;;;;9.82;4.15;;;;;;;6.74;100.00;94302.84;10484781;28;20381;-75
2020/12/27 11:44:55;;;;;;;3.40;1.50;;;;;;;6.65;100.00;94283.84;10486472;28;20384;-75
2020/12/27 11:49:55;;;;;;;5.13;2.00;;;;;;;6.72;100.00;94278.28;10498027;28;20270;-76
2020/12/27 11:54:56;;;;;;;4.63;1.08;;;;;;;6.53;100.00;94268.03;10510180;28;20290;-76
2020/12/27 11:59:56;;;;;;;3.58;2.17;;;;;;;6.36;100.00;94254.84;10508314;28;20067;-76
2020/12/27 12:04:56;;;;;;;5.33;2.23;;;;;;;6.31;100.00;94250.28;10485580;28;20052;-76
2020/12/27 12:09:57;;;;;;;3.08;2.03;;;;;;;6.16;100.00;94255.53;10483854;28;20029;-76
2020/12/27 12:14:57;;;;;;;6.73;2.53;;;;;;;6.22;100.00;94225.16;10484872;28;20032;-76
2020/12/27 12:19:57;;;;;;;3.97;2.00;;;;;;;6.26;100.00;94217.44;10485751;28;20059;-76
2020/12/27 12:24:58;;;;;;;4.80;2.97;;;;;;;6.30;100.00;94239.88;10509057;28;20093;-76
2020/12/27 12:29:58;;;;;;;6.37;2.90;;;;;;;6.15;100.00;94219.25;10531605;28;20449;-75
2020/12/27 12:34:58;;;;;;;4.67;2.83;;;;;;;6.03;100.00;94202.63;10535570;28;20273;-77
2020/12/27 12:39:59;;;;;;;6.83;4.20;;;;;;;6.15;100.00;94197.91;10536470;28;20024;-76
2020/12/27 12:44:59;;;;;;;8.53;3.80;;;;;;;6.11;100.00;94172.78;10535841;28;20443;-76
2020/12/27 12:50:00;;;;;;;7.80;3.43;;;;;;;6.20;100.00;94189.94;10533256;28;20410;-75
2020/12/27 12:55:03;;;;;;;6.18;3.38;;;;;;;6.15;100.00;94188.03;10534041;28;20073;-75
2020/12/27 13:00:05;;;;;;;6.75;3.95;;;;;;;6.13;100.00;94176.03;10521337;28;20120;-75
2020/12/27 13:05:06;;;;;;;7.18;4.20;;;;;;;6.23;100.00;94201.94;10524823;28;20021;-76
2020/12/27 13:10:06;;;;;;;5.80;4.03;;;;;;;6.14;100.00;94178.41;10533857;28;20032;-76
2020/12/27 13:15:07;;;;;;;6.28;3.95;;;;;;;6.26;100.00;94172.88;10533920;28;20437;-75
2020/12/27 13:20:10;;;;;;;10.18;4.25;;;;;;;6.10;100.00;94173.88;10533134;28;20052;-76
2020/12/27 13:25:11;;;;;;;11.45;4.65;;;;;;;6.14;100.00;94174.97;10532977;28;20036;-75
2020/12/27 13:30:13;;;;;;;8.88;4.45;;;;;;;6.22;100.00;94161.09;10533526;28;20461;-75
2020/12/27 13:35:14;;;;;;;7.43;3.97;;;;;;;6.08;100.00;94170.66;10533927;28;20024;-75
2020/12/27 13:40:14;;;;;;;7.03;4.53;;;;;;;6.16;100.00;94170.94;10532406;28;20649;-75
2020/12/27 13:45:15;;;;;;;7.63;4.22;;;;;;;6.13;100.00;94152.00;10513810;28;20471;-76
2020/12/27 13:50:15;;;;;;;9.15;5.25;;;;;;;6.31;100.00;94148.88;10531381;28;20031;-76
2020/12/27 13:55:15;;;;;;;11.00;5.23;;;;;;;6.44;100.00;94136.13;10531139;28;20024;-76
2020/12/27 14:00:16;;;;;;;8.50;4.70;;;;;;;6.30;100.00;94143.81;10530413;28;20036;-76
2020/12/27 14:05:16;;;;;;;7.50;4.07;;;;;;;6.24;100.00;94134.97;10527128;28;20052;-76
2020/12/27 14:10:16;;;;;;;9.33;4.50;;;;;;;6.26;100.00;94130.16;10514370;28;20265;-76
2020/12/27 14:15:17;;;;;;;11.70;4.60;;;;;;;6.21;100.00;94129.34;10531351;28;20067;-76
2020/12/27 14:20:17;;;;;;;6.93;4.17;;;;;;;6.31;100.00;94124.88;10531545;28;20294;-76
2020/12/27 14:25:17;;;;;;;10.97;5.23;;;;;;;6.37;100.00;94114.22;10513148;28;20270;-76
2020/12/27 14:30:18;;;;;;;12.00;5.73;;;;;;;6.38;100.00;94111.28;10528486;28;20030;-76
2020/12/27 14:35:18;;;;;;;10.80;5.63;;;;;;;6.37;100.00;94096.31;10489514;28;20028;-76
2020/12/27 14:40:19;;;;;;;17.27;7.10;;;;;;;6.32;100.00;94102.47;10488103;28;20637;-76
2020/12/27 14:45:19;;;;;;;10.27;5.57;;;;;;;6.35;100.00;94102.97;10513498;28;20035;-76
2020/12/27 14:50:19;;;;;;;14.53;5.83;;;;;;;6.28;100.00;94082.69;10519741;28;20266;-76
2020/12/27 14:55:20;;;;;;;14.80;6.97;;;;;;;6.17;100.00;94086.41;10503631;28;20307;-76
2020/12/27 15:00:20;;;;;;;13.10;5.60;;;;;;;6.24;100.00;94086.94;10504394;28;20444;-76
2020/12/27 15:05:22;;;;;;;11.07;5.47;;;;;;;6.21;100.00;94082.13;10528708;28;20294;-77
2020/12/27 15:10:22;;;;;;;13.90;7.00;;;;;;;6.23;100.00;94069.31;10528485;28;20051;-77
2020/12/27 15:15:22;;;;;;;11.18;5.32;;;;;;;6.27;100.00;94054.41;10519319;28;20020;-76
2020/12/27 15:20:23;;;;;;;14.23;6.33;;;;;;;6.31;100.00;94055.47;10525927;28;20044;-77
2020/12/27 15:25:23;;;;;;;10.98;5.97;;;;;;;6.23;100.00;94066.66;10526062;28;20290;-77
2020/12/27 15:30:24;;;;;;;10.98;6.25;;;;;;;6.25;100.00;94072.56;10524190;28;20456;-76
2020/12/27 15:35:25;;;;;;;15.18;7.72;;;;;;;6.32;100.00;94058.94;10515795;28;20022;-77
2020/12/27 15:40:25;;;;;;;10.23;5.07;;;;;;;6.30;100.00;94051.19;10521712;28;20502;-76
2020/12/27 15:45:26;;;;;;;11.68;5.82;;;;;;;6.37;100.00;94050.16;10520255;28;20055;-78
2020/12/27 15:50:26;;;;;;;12.97;5.97;;;;;;;6.44;100.00;94038.16;10522560;28;20020;-77
2020/12/27 15:55:26;;;;;;;9.10;5.10;;;;;;;6.48;100.00;94043.78;10523829;28;20270;-75
2020/12/27 16:00:27;;;;;;;11.03;4.97;;;;;;;6.55;100.00;94038.97;10524532;28;20329;-76
2020/12/27 16:05:27;;;;;;;11.33;6.13;;;;;;;6.63;100.00;94053.69;10522950;28;20028;-75
2020/12/27 16:10:27;;;;;;;10.80;5.63;;;;;;;6.75;100.00;94048.09;10523111;28;20024;-76
2020/12/27 16:15:28;;;;;;;11.50;6.23;;;;;;;6.56;100.00;94042.44;10509003;28;20077;-77
2020/12/27 16:20:28;;;;;;;13.93;6.00;;;;;;;6.65;100.00;94032.84;10504573;28;20310;-76
2020/12/27 16:25:29;;;;;;;12.43;6.32;;;;;;;6.60;100.00;94014.16;10511916;28;20040;-75
2020/12/27 16:30:29;;;;;;;16.33;7.53;;;;;;;6.77;100.00;94025.38;10528255;28;20028;-77
2020/12/27 16:35:30;;;;;;;11.27;6.28;;;;;;;6.79;100.00;94006.41;10529063;28;20028;-77
2020/12/27 16:40:30;;;;;;;11.67;6.13;;;;;;;6.77;100.00;93992.56;10503341;28;20093;-75
2020/12/27 16:45:31;;;;;;;12.23;6.67;;;;;;;6.89;100.00;93987.72;10523006;28;20282;-75
2020/12/27 16:50:31;;;;;;;13.65;6.75;;;;;;;6.88;100.00;93998.66;10503904;28;20598;-76
2020/12/27 16:55:31;;;;;;;17.20;8.90;;;;;;;6.88;100.00;93993.31;10502723;28;20024;-76
2020/12/27 17:00:35;;;;;;;15.53;8.40;;;;;;;6.94;100.00;94010.97;10505227;28;20278;-76
2020/12/27 17:05:35;;;;;;;15.60;8.57;;;;;;;6.91;100.00;94020.31;10500494;28;20028;-76
2020/12/27 17:10:36;;;;;;;18.60;9.20;;;;;;;6.96;100.00;94017.66;10516634;28;20551;-76
2020/12/27 17:15:36;;;;;;;25.87;11.87;;;;;;;7.03;100.00;94009.34;10523240;28;20020;-75
2020/12/27 17:20:42;;;;;;;18.33;9.30;;;;;;;7.04;100.00;93994.91;10526084;28;20052;-76
2020/12/27 17:25:42;;;;;;;17.80;9.65;;;;;;;7.08;100.00;93976.50;10524353;28;20028;-75
2020/12/27 17:30:44;;;;;;;24.37;10.77;;;;;;;7.17;100.00;93975.69;10523214;28;20409;-75
2020/12/27 17:35:44;;;;;;;25.65;12.18;;;;;;;7.17;100.00;93974.84;10504975;28;20085;-75
2020/12/27 17:40:45;;;;;;;20.37;9.97;;;;;;;7.19;100.00;93975.41;10526045;28;20028;-76
2020/12/27 17:45:45;;;;;;;25.10;11.07;;;;;;;7.17;100.00;93998.91;10526941;28;20281;-76
2020/12/27 17:50:45;;;;;;;25.47;12.33;;;;;;;7.18;100.00;94000.50;10509346;28;20281;-76
2020/12/27 17:55:46;;;;;;;23.50;11.50;;;;;;;7.20;100.00;94011.75;10525337;28;20031;-76
2020/12/27 18:00:46;;;;;;;27.13;12.87;;;;;;;6.84;100.00;94017.91;10526844;28;20031;-76
2020/12/27 18:05:48;;;;;;;28.30;14.20;;;;;;;6.65;100.00;94017.63;10528927;28;20071;-76
2020/12/27 18:10:48;;;;;;;29.85;14.00;;;;;;;6.50;100.00;94015.75;10527462;28;20478;-77
2020/12/27 18:15:49;;;;;;;29.90;16.50;;;;;;;6.60;100.00;93993.59;10486069;28;20032;-76
2020/12/27 18:20:49;;;;;;;43.30;16.37;;;;;;;6.69;100.00;93995.75;10466637;28;20079;-75
2020/12/27 18:25:49;;;;;;;29.52;12.25;;;;;;;6.67;100.00;93986.13;10467931;28;20846;-76
2020/12/27 18:30:50;;;;;;;25.00;11.87;;;;;;;6.82;100.00;93992.53;10485804;28;20028;-76
2020/12/27 18:35:50;;;;;;;24.80;10.23;;;;;;;6.81;100.00;93994.41;10508340;28;20024;-76
2020/12/27 18:40:51;;;;;;;22.92;10.55;;;;;;;6.90;100.00;93986.66;10526650;28;20035;-76
2020/12/27 18:45:51;;;;;;;20.58;10.82;;;;;;;6.91;100.00;93995.47;10484716;28;20494;-76
2020/12/27 18:50:52;;;;;;;35.80;11.23;;;;;;;6.95;100.00;93994.66;10467755;28;20035;-77
2020/12/27 18:55:53;;;;;;;13.77;7.60;;;;;;;7.00;100.00;94002.69;10515040;28;20036;-77
2020/12/27 19:00:53;;;;;;;10.45;5.25;;;;;;;6.97;100.00;94000.53;10483969;28;20395;-78
2020/12/27 19:05:54;;;;;;;19.90;8.23;;;;;;;6.85;100.00;93983.97;10484248;28;20037;-75
2020/12/27 19:10:54;;;;;;;16.23;8.43;;;;;;;6.82;100.00;93973.84;10466591;28;20040;-75
2020/12/27 19:15:57;;;;;;;26.57;11.87;;;;;;;6.84;100.00;93951.13;10483840;28;20101;-75
2020/12/27 19:20:57;;;;;;;20.13;8.88;;;;;;;6.90;100.00;93945.78;10484034;28;20056;-76
2020/12/27 19:25:59;;;;;;;16.92;8.38;;;;;;;6.82;100.00;93947.94;10487114;28;20456;-76
2020/12/27 19:31:02;;;;;;;13.73;9.23;;;;;;;6.84;100.00;93928.97;10507926;28;20058;-76
2020/12/27 19:36:03;;;;;;;16.63;8.45;;;;;;;6.61;100.00;93952.47;10504708;28;20031;-76
2020/12/27 19:41:08;;;;;;;23.35;13.43;;;;;;;6.46;100.00;93945.28;10518802;28;20830;-75
2020/12/27 19:46:13;;;;;;;32.88;15.75;;;;;;;6.31;100.00;93940.72;10518102;28;20111;-76
2020/12/27 19:51:14;;;;;;;35.15;17.92;;;;;;;6.23;100.00;93943.91;10521251;28;20039;-75
2020/12/27 19:56:14;;;;;;;29.23;15.35;;;;;;;6.38;100.00;93939.66;10517971;28;20040;-76
2020/12/27 20:01:16;;;;;;;36.05;16.08;;;;;;;6.32;100.00;93946.84;10519028;28;20032;-77
2020/12/27 20:06:20;;;;;;;39.78;19.13;;;;;;;6.13;100.00;93952.72;10501234;28;20024;-76
2020/12/27 20:11:24;;;;;;;48.70;24.13;;;;;;;5.92;100.00;93959.84;10524650;28;20031;-75
2020/12/27 20:16:25;;;;;;;55.55;26.13;;;;;;;5.80;100.00;93968.09;10505797;28;20198;-76
2020/12/27 20:21:26;;;;;;;55.72;23.65;;;;;;;5.88;100.00;93982.75;10481926;28;20058;-76
2020/12/27 20:26:26;;;;;;;50.90;24.60;;;;;;;5.75;100.00;93956.56;10515781;28;20137;-76
2020/12/27 20:31:27;;;;;;;59.75;27.30;;;;;;;5.74;100.00;93971.78;10523526;28;20270;-75
2020/12/27 20:36:27;;;;;;;72.65;31.50;;;;;;;5.68;100.00;93966.69;10523142;28;20455;-76
2020/12/27 20:41:27;;;;;;;65.20;32.50;;;;;;;5.86;100.00;93976.91;10524625;28;20025;-76
2020/12/27 20:46:28;;;;;;;61.43;31.63;;;;;;;6.01;100.00;93960.16;10485641;28;20047;-76
2020/12/27 20:51:28;;;;;;;67.28;30.80;;;;;;;6.03;100.00;93943.88;10467795;28;20267;-76
2020/12/27 20:56:29;;;;;;;64.15;31.05;;;;;;;5.79;100.00;93934.47;10490308;28;20078;-76
2020/12/27 21:01:34;;;;;;;62.85;30.17;;;;;;;5.67;100.00;93957.91;10489666;28;20059;-76
2020/12/27 21:06:34;;;;;;;63.15;30.85;;;;;;;5.61;100.00;93989.06;10493217;28;20029;-75
2020/12/27 21:11:34;;;;;;;71.22;33.75;;;;;;;5.68;100.00;93991.50;10493804;28;20094;-76
2020/12/27 21:16:35;;;;;;;67.33;31.60;;;;;;;5.87;100.00;93997.16;10520243;28;20475;-75
2020/12/27 21:21:35;;;;;;;92.07;46.40;;;;;;;5.88;100.00;93988.09;10571165;28;20302;-75
2020/12/27 21:26:36;;;;;;;70.82;33.42;;;;;;;6.00;100.00;93969.25;10535255;28;20387;-75
2020/12/27 21:31:36;;;;;;;57.40;31.53;;;;;;;6.07;100.00;93975.13;10535359;28;20020;-75
2020/12/27 21:36:41;;;;;;;64.67;31.40;;;;;;;6.14;100.00;93967.66;10535184;28;20277;-75
2020/12/27 21:41:42;;;;;;;66.40;33.60;;;;;;;5.98;100.00;93966.03;10534722;28;20288;-75
2020/12/27 21:46:42;;;;;;;69.33;32.67;;;;;;;5.93;100.00;93965.97;10534737;28;20020;-75
2020/12/27 21:51:46;;;;;;;82.57;36.75;;;;;;;5.96;100.00;93966.25;10534373;28;20760;-75
2020/12/27 21:56:46;;;;;;;81.70;36.05;;;;;;;5.86;100.00;93976.09;10526625;28;20029;-75
2020/12/27 22:01:51;;;;;;;87.03;37.57;;;;;;;5.82;100.00;93978.50;10523289;28;20030;-75
2020/12/27 22:06:55;;;;;;;88.65;39.88;;;;;;;5.90;100.00;93953.97;10516493;28;20024;-75
2020/12/27 22:11:55;;;;;;;84.72;37.15;;;;;;;6.14;100.00;93948.19;10509953;28;20032;-75
2020/12/27 22:16:59;;;;;;;90.77;38.53;;;;;;;6.19;100.00;93956.19;10499528;28;20055;-73
2020/12/27 22:22:01;;;;;;;74.13;34.35;;;;;;;6.17;100.00;93953.00;10503022;28;20638;-74
2020/12/27 22:27:01;;;;;;;70.97;33.50;;;;;;;6.18;100.00;93951.91;10491594;28;20032;-74
2020/12/27 22:32:02;;;;;;;80.18;35.92;;;;;;;6.16;100.00;93956.72;10491161;28;20028;-75
2020/12/27 22:37:02;;;;;;;70.50;33.23;;;;;;;6.10;100.00;93950.56;10473183;28;20078;-74
2020/12/27 22:42:07;;;;;;;66.30;32.53;;;;;;;6.05;100.00;93939.09;10490716;28;20311;-74
2020/12/27 22:47:07;;;;;;;64.50;29.15;;;;;;;6.15;100.00;93920.44;10490848;28;20089;-75
2020/12/27 22:52:07;;;;;;;68.57;30.48;;;;;;;5.99;100.00;93939.06;10490392;28;20086;-75
2020/12/27 22:57:08;;;;;;;60.10;28.07;;;;;;;5.92;100.00;93935.84;10490036;28;20032;-74
2020/12/27 23:02:08;;;;;;;62.38;27.90;;;;;;;5.86;100.00;93922.75;10483268;28;20818;-74
2020/12/27 23:07:12;;;;;;;30.90;15.82;;;;;;;5.83;100.00;93862.75;10490314;28;20052;-74
2020/12/27 23:12:13;;;;;;;14.23;6.57;;;;;;;5.94;100.00;93859.03;10471071;28;20016;-74
2020/12/27 23:17:14;;;;;;;3.90;1.65;;;;;;;6.12;100.00;93820.38;10489944;28;20044;-74
2020/12/27 23:22:14;;;;;;;0.43;0.30;;;;;;;6.21;100.00;93828.66;10471586;28;20503;-74
2020/12/27 23:27:14;;;;;;;1.10;0.70;;;;;;;6.13;100.00;93807.88;10488626;28;20028;-74
2020/12/27 23:32:17;;;;;;;2.00;0.30;;;;;;;6.11;100.00;93793.97;10471014;28;20047;-74
2020/12/27 23:37:17;;;;;;;0.57;0.40;;;;;;;6.18;100.00;93783.81;10471205;28;20027;-74
2020/12/27 23:42:17;;;;;;;3.03;0.53;;;;;;;6.14;100.00;93788.91;10488433;28;20032;-74
2020/12/27 23:47:18;;;;;;;1.38;0.45;;;;;;;6.13;100.00;93787.31;10488434;28;20495;-74
2020/12/27 23:52:18;;;;;;;2.33;1.10;;;;;;;6.14;100.00;93802.25;10494372;28;20031;-74
2020/12/27 23:57:19;;;;;;;1.88;1.08;;;;;;;6.18;100.00;93794.50;10530192;28;20270;-74
